Time;durP1;ratioP1;P1;durP2;ratioP2;P2;SDS_P1;SDS_P2;PMS_P1;PMS_P2;Temp;Humidity;BMP_temperature;BMP_pressure;BME280_temperature;BME280_humidity;BME280_pressure;Samples;Min_cycle;Max_cycle;Signal;HPM_P1;HPM_P2
2023/07/02 00:00:12;;;;;;;8.97;5.20;;;16.00;99.90;;;;;;4954358;29;20322;-74
2023/07/02 00:02:41;;;;;;;7.17;5.00;;;16.00;99.90;;;;;;4947201;29;20239;-75
2023/07/02 00:05:09;;;;;;;7.70;5.20;;;16.00;99.90;;;;;;4935450;29;20239;-74
2023/07/02 00:07:37;;;;;;;7.60;5.60;;;15.90;99.90;;;;;;4935142;29;20313;-74
2023/07/02 00:10:07;;;;;;;6.33;5.10;;;15.90;99.90;;;;;;4935975;29;20208;-75
2023/07/02 00:12:36;;;;;;;6.43;4.87;;;15.90;99.90;;;;;;4950094;29;20625;-73
2023/07/02 00:15:05;;;;;;;8.37;5.40;;;15.90;99.90;;;;;;4954676;29;20218;-74
2023/07/02 00:17:33;;;;;;;8.33;5.17;;;15.90;99.90;;;;;;4954500;29;20207;-74
2023/07/02 00:20:06;;;;;;;6.93;5.03;;;15.90;99.90;;;;;;4939653;29;20244;-76
2023/07/02 00:22:36;;;;;;;7.30;5.10;;;15.80;99.90;;;;;;4934540;29;20370;-79
2023/07/02 00:25:04;;;;;;;6.67;5.00;;;15.80;99.90;;;;;;4934872;29;20215;-79
2023/07/02 00:27:34;;;;;;;5.60;4.70;;;15.80;99.90;;;;;;4934749;29;20215;-76
2023/07/02 00:30:02;;;;;;;7.40;4.63;;;15.80;99.90;;;;;;4934910;29;20307;-74
2023/07/02 00:32:33;;;;;;;6.43;4.70;;;15.80;99.90;;;;;;4965548;28;20485;-76
2023/07/02 00:35:01;;;;;;;9.33;4.97;;;15.80;99.90;;;;;;4950358;28;20216;-76
2023/07/02 00:37:29;;;;;;;6.20;4.67;;;15.80;99.90;;;;;;4936082;29;20212;-76
2023/07/02 00:39:58;;;;;;;7.90;4.53;;;15.80;99.90;;;;;;4938279;29;20220;-75
2023/07/02 00:42:29;;;;;;;5.20;4.30;;;15.80;99.90;;;;;;4944142;28;20251;-73
2023/07/02 00:45:02;;;;;;;5.20;4.70;;;15.80;99.90;;;;;;4938151;29;20216;-76
2023/07/02 00:47:33;;;;;;;5.60;4.63;;;15.80;99.90;;;;;;4938249;29;20215;-78
2023/07/02 00:50:02;;;;;;;7.27;4.50;;;15.80;99.90;;;;;;4938153;29;20212;-75
2023/07/02 00:52:30;;;;;;;5.30;4.30;;;15.80;99.90;;;;;;4937687;29;20283;-74
2023/07/02 00:54:59;;;;;;;7.83;4.30;;;15.80;99.90;;;;;;4938526;29;20230;-75
2023/07/02 00:57:29;;;;;;;6.43;4.43;;;15.90;99.90;;;;;;4941453;29;20216;-75
2023/07/02 01:00:00;;;;;;;4.87;4.03;;;15.90;99.90;;;;;;4937766;29;20299;-76
2023/07/02 01:02:29;;;;;;;6.83;4.20;;;15.90;99.90;;;;;;4949900;29;20670;-73
2023/07/02 01:04:59;;;;;;;6.60;4.20;;;15.90;99.90;;;;;;4956859;28;20243;-74
2023/07/02 01:07:29;;;;;;;7.90;4.00;;;15.90;99.90;;;;;;4956958;29;20199;-78
2023/07/02 01:09:57;;;;;;;4.80;3.83;;;15.90;99.90;;;;;;4950556;29;20246;-74
2023/07/02 01:12:26;;;;;;;4.37;3.57;;;15.90;99.90;;;;;;4937605;29;20271;-74
2023/07/02 01:15:00;;;;;;;6.70;4.17;;;15.90;99.90;;;;;;4937580;29;20216;-79
2023/07/02 01:17:41;;;;;;;5.00;3.77;;;15.90;99.90;;;;;;4937701;29;20208;-76
2023/07/02 01:20:13;;;;;;;4.33;3.93;;;15.90;99.90;;;;;;4937491;29;20216;-77
2023/07/02 01:22:41;;;;;;;5.20;3.90;;;15.90;99.90;;;;;;4937510;29;20264;-74
2023/07/02 01:25:10;;;;;;;5.10;4.10;;;15.90;99.90;;;;;;4937388;29;20252;-78
2023/07/02 01:27:38;;;;;;;3.73;3.37;;;15.90;99.90;;;;;;4937769;29;20212;-77
2023/07/02 01:30:09;;;;;;;7.83;4.30;;;15.90;99.90;;;;;;4950753;28;20210;-80
2023/07/02 01:32:38;;;;;;;5.77;3.77;;;15.90;99.90;;;;;;4949256;28;20208;-76
2023/07/02 01:35:08;;;;;;;6.13;3.73;;;15.90;99.90;;;;;;4937369;29;20656;-78
2023/07/02 01:37:38;;;;;;;4.13;3.70;;;15.90;99.90;;;;;;4937700;29;20244;-79
2023/07/02 01:40:08;;;;;;;4.37;3.67;;;15.90;99.90;;;;;;4937168;29;20315;-79
2023/07/02 01:42:36;;;;;;;5.43;4.07;;;15.90;99.90;;;;;;4937055;29;20314;-78
2023/07/02 01:45:05;;;;;;;4.17;3.57;;;15.90;99.90;;;;;;4937482;29;20227;-79
2023/07/02 01:47:33;;;;;;;4.77;4.00;;;15.90;99.90;;;;;;4936322;29;20219;-78
2023/07/02 01:50:01;;;;;;;6.43;4.10;;;15.90;99.90;;;;;;4937098;29;20299;-78
2023/07/02 01:52:32;;;;;;;4.13;3.43;;;15.80;99.90;;;;;;4936948;29;20649;-79
2023/07/02 01:55:03;;;;;;;7.57;4.00;;;15.80;99.90;;;;;;4936926;29;20690;-78
2023/07/02 01:57:31;;;;;;;6.30;3.60;;;15.80;99.90;;;;;;4940707;29;20300;-78
2023/07/02 01:59:59;;;;;;;4.53;3.20;;;15.80;99.90;;;;;;4956008;28;20467;-80
2023/07/02 02:02:27;;;;;;;4.93;3.13;;;15.80;99.90;;;;;;4956028;29;20241;-77
2023/07/02 02:04:57;;;;;;;3.73;3.33;;;15.90;99.90;;;;;;4952808;29;20211;-76
2023/07/02 02:07:25;;;;;;;4.80;3.50;;;15.80;99.90;;;;;;4937532;29;20620;-76
2023/07/02 02:09:54;;;;;;;6.50;3.37;;;15.80;99.90;;;;;;4937814;29;20212;-79
2023/07/02 02:12:23;;;;;;;4.57;3.00;;;15.80;99.90;;;;;;4936817;29;20220;-77
2023/07/02 02:14:51;;;;;;;3.23;2.93;;;15.80;99.90;;;;;;4937065;29;20267;-78
2023/07/02 02:17:20;;;;;;;3.23;2.90;;;15.80;99.90;;;;;;4937014;29;20259;-78
2023/07/02 02:19:48;;;;;;;3.37;2.63;;;15.80;99.90;;;;;;4936865;29;20208;-78
2023/07/02 02:22:16;;;;;;;3.90;2.50;;;15.70;99.90;;;;;;4935754;29;20259;-79
2023/07/02 02:24:44;;;;;;;3.23;2.80;;;15.70;99.90;;;;;;4936726;29;20525;-77
2023/07/02 02:27:12;;;;;;;4.47;2.47;;;15.70;99.90;;;;;;4936241;29;20793;-78
2023/07/02 02:29:42;;;;;;;2.97;2.60;;;15.70;99.90;;;;;;4965412;28;20680;-75
2023/07/02 02:32:10;;;;;;;3.63;2.70;;;15.70;99.90;;;;;;4940679;28;20235;-74
2023/07/02 02:34:38;;;;;;;3.27;2.67;;;15.60;99.90;;;;;;4936428;29;20615;-76
2023/07/02 02:37:06;;;;;;;4.30;2.50;;;15.60;99.90;;;;;;4936341;29;20240;-76
2023/07/02 02:39:34;;;;;;;3.60;2.57;;;15.60;99.90;;;;;;4936114;29;20212;-77
2023/07/02 02:42:02;;;;;;;4.37;2.60;;;15.60;99.90;;;;;;4935629;29;20287;-78
2023/07/02 02:44:32;;;;;;;2.83;2.40;;;15.50;99.90;;;;;;4935880;29;20570;-77
2023/07/02 02:47:02;;;;;;;4.63;2.63;;;15.50;99.90;;;;;;4936069;29;20569;-79
2023/07/02 02:49:31;;;;;;;4.50;2.83;;;15.50;99.90;;;;;;4935805;29;20218;-76
2023/07/02 02:51:59;;;;;;;3.00;2.67;;;15.50;99.90;;;;;;4935610;29;20216;-78
2023/07/02 02:54:27;;;;;;;5.17;2.70;;;15.50;99.90;;;;;;4935582;29;20252;-77
2023/07/02 02:56:55;;;;;;;3.40;2.57;;;15.60;99.90;;;;;;4935669;29;20215;-78
2023/07/02 02:59:23;;;;;;;2.73;2.53;;;15.60;99.90;;;;;;4935438;29;20207;-77
2023/07/02 03:01:51;;;;;;;3.60;2.63;;;15.60;99.90;;;;;;4935638;29;20264;-78
2023/07/02 03:04:23;;;;;;;3.90;2.30;;;15.70;99.90;;;;;;4936688;29;20255;-75
2023/07/02 03:06:52;;;;;;;3.47;2.70;;;15.70;99.90;;;;;;4936024;29;20204;-76
2023/07/02 03:09:21;;;;;;;3.53;2.40;;;15.80;99.90;;;;;;4936394;29;20302;-79
2023/07/02 03:11:49;;;;;;;3.07;2.50;;;15.80;99.90;;;;;;4935267;29;20580;-78
2023/07/02 03:14:18;;;;;;;8.33;3.03;;;15.80;99.90;;;;;;4935318;29;20216;-80
2023/07/02 03:16:46;;;;;;;8.50;3.00;;;15.90;99.90;;;;;;4935770;29;20275;-77
2023/07/02 03:19:15;;;;;;;4.23;2.90;;;15.90;99.90;;;;;;4935199;29;20217;-81
2023/07/02 03:21:45;;;;;;;6.60;3.10;;;15.80;99.90;;;;;;4935179;29;20699;-77
2023/07/02 03:24:14;;;;;;;4.83;2.83;;;15.60;99.90;;;;;;4935333;29;20271;-76
2023/07/02 03:26:42;;;;;;;12.23;3.30;;;15.50;99.90;;;;;;4939099;28;20263;-77
2023/07/02 03:29:11;;;;;;;6.57;3.27;;;15.40;99.90;;;;;;4973585;28;20685;-77
2023/07/02 03:31:39;;;;;;;10.53;3.33;;;15.30;99.90;;;;;;4958127;28;20287;-77
2023/07/02 03:34:09;;;;;;;5.23;3.13;;;15.20;99.90;;;;;;4935150;29;20263;-75
2023/07/02 03:36:37;;;;;;;5.43;3.20;;;15.10;99.90;;;;;;4935321;29;20228;-76
2023/07/02 03:39:06;;;;;;;6.30;3.70;;;15.00;99.90;;;;;;4935491;29;20557;-76
2023/07/02 03:41:37;;;;;;;4.53;3.30;;;15.00;99.90;;;;;;4934581;29;20303;-77
2023/07/02 03:44:05;;;;;;;4.83;3.30;;;15.00;99.90;;;;;;4935086;29;20240;-76
2023/07/02 03:46:34;;;;;;;5.00;3.33;;;15.00;99.90;;;;;;4935177;29;20284;-77
2023/07/02 03:49:02;;;;;;;6.73;3.50;;;15.00;99.90;;;;;;4934946;29;20568;-76
2023/07/02 03:51:31;;;;;;;5.07;3.67;;;15.00;99.90;;;;;;4934695;29;20215;-78
2023/07/02 03:53:59;;;;;;;6.47;4.13;;;14.90;99.90;;;;;;4934612;29;20310;-77
2023/07/02 03:56:28;;;;;;;5.67;3.90;;;15.00;99.90;;;;;;4934644;29;20247;-76
2023/07/02 03:58:57;;;;;;;7.10;3.50;;;15.00;99.90;;;;;;4934474;29;20280;-78
2023/07/02 04:01:25;;;;;;;5.07;3.30;;;15.00;99.90;;;;;;4934974;29;20216;-75
2023/07/02 04:03:54;;;;;;;7.63;3.30;;;14.90;99.90;;;;;;4934876;29;20247;-80
2023/07/02 04:06:22;;;;;;;4.17;2.67;;;14.90;99.90;;;;;;4935175;29;20617;-76
2023/07/02 04:08:51;;;;;;;3.17;2.53;;;14.70;99.90;;;;;;4935110;29;20212;-76
2023/07/02 04:11:19;;;;;;;4.07;2.90;;;14.70;99.90;;;;;;4934538;29;20237;-77
2023/07/02 04:13:48;;;;;;;3.67;2.50;;;14.70;99.90;;;;;;4934855;29;20682;-80
2023/07/02 04:16:16;;;;;;;3.93;2.80;;;14.80;99.90;;;;;;4934974;29;20302;-77
2023/07/02 04:18:45;;;;;;;6.17;3.00;;;14.80;99.90;;;;;;4934860;29;20212;-75
2023/07/02 04:21:13;;;;;;;4.43;3.20;;;14.70;99.90;;;;;;4935223;29;20216;-77
2023/07/02 04:23:41;;;;;;;6.97;2.90;;;14.60;99.90;;;;;;4934751;29;20232;-76
2023/07/02 04:26:10;;;;;;;3.47;2.77;;;14.70;99.90;;;;;;4952173;28;20210;-76
2023/07/02 04:28:59;;;;;;;5.47;3.30;;;14.60;99.90;;;;;;4973074;28;20222;-75
2023/07/02 04:31:29;;;;;;;4.67;2.93;;;14.60;99.90;;;;;;4973350;28;20277;-77
2023/07/02 04:33:59;;;;;;;4.63;2.93;;;14.50;99.90;;;;;;4937543;28;20212;-77
2023/07/02 04:36:28;;;;;;;3.70;2.80;;;14.60;99.90;;;;;;4934589;29;20232;-76
2023/07/02 04:38:56;;;;;;;3.97;2.87;;;14.50;99.90;;;;;;4935059;29;20216;-75
2023/07/02 04:41:24;;;;;;;4.20;2.97;;;14.50;99.90;;;;;;4934724;29;20445;-78
2023/07/02 04:43:52;;;;;;;4.83;2.90;;;14.50;99.90;;;;;;4934575;29;20232;-76
2023/07/02 04:46:22;;;;;;;6.00;3.00;;;14.50;99.90;;;;;;4934754;29;20473;-76
2023/07/02 04:48:51;;;;;;;3.73;2.57;;;14.50;99.90;;;;;;4934702;29;20196;-77
2023/07/02 04:51:21;;;;;;;4.03;2.77;;;14.50;99.90;;;;;;4934368;29;20216;-78
2023/07/02 04:53:49;;;;;;;5.97;3.03;;;14.50;99.90;;;;;;4934072;29;20280;-76
2023/07/02 04:56:17;;;;;;;4.03;2.70;;;14.50;99.90;;;;;;4934548;29;20260;-78
2023/07/02 04:58:45;;;;;;;4.27;2.77;;;14.50;99.90;;;;;;4934023;29;20208;-76
2023/07/02 05:01:13;;;;;;;4.47;2.83;;;14.40;99.90;;;;;;4934394;29;20217;-75
2023/07/02 05:03:43;;;;;;;4.63;3.03;;;14.40;99.90;;;;;;4934089;29;20228;-76
2023/07/02 05:06:11;;;;;;;5.17;3.00;;;14.40;99.90;;;;;;4934465;29;20295;-80
2023/07/02 05:08:39;;;;;;;6.23;2.70;;;14.40;99.90;;;;;;4934165;29;20267;-76
2023/07/02 05:11:10;;;;;;;6.07;2.90;;;14.40;99.90;;;;;;4934434;29;20239;-76
2023/07/02 05:13:38;;;;;;;4.23;2.77;;;14.50;99.90;;;;;;4934016;29;20244;-77
2023/07/02 05:16:06;;;;;;;5.83;3.20;;;14.60;99.90;;;;;;4935102;28;20286;-76
2023/07/02 05:18:34;;;;;;;3.47;3.00;;;14.80;99.90;;;;;;4972845;28;20359;-75
2023/07/02 05:21:04;;;;;;;6.03;3.00;;;14.80;99.90;;;;;;4972645;28;20218;-76
2023/07/02 05:23:32;;;;;;;4.40;2.90;;;14.80;99.90;;;;;;4973516;28;20231;-74
2023/07/02 05:26:00;;;;;;;3.77;3.10;;;14.80;99.90;;;;;;4938963;28;20307;-75
2023/07/02 05:28:28;;;;;;;5.27;3.20;;;14.70;99.90;;;;;;4937654;29;20656;-75
2023/07/02 05:30:56;;;;;;;3.80;2.80;;;14.80;99.90;;;;;;4937422;29;20280;-74
2023/07/02 05:33:24;;;;;;;6.80;3.63;;;14.80;99.90;;;;;;4937181;29;20212;-75
2023/07/02 05:35:52;;;;;;;3.40;2.70;;;14.70;99.90;;;;;;4937707;29;20289;-75
2023/07/02 05:38:22;;;;;;;4.67;3.13;;;14.70;99.90;;;;;;4938210;29;20290;-73
2023/07/02 05:40:50;;;;;;;5.17;2.90;;;14.70;99.90;;;;;;4938166;29;20208;-72
2023/07/02 05:43:18;;;;;;;4.13;3.00;;;14.60;99.90;;;;;;4937547;29;20639;-77
2023/07/02 05:45:47;;;;;;;3.90;2.70;;;14.60;99.90;;;;;;4940914;29;20283;-75
2023/07/02 05:48:15;;;;;;;5.37;3.27;;;14.60;99.90;;;;;;4940747;29;20220;-75
2023/07/02 05:50:43;;;;;;;4.40;3.03;;;14.60;99.90;;;;;;4944715;29;20213;-77
2023/07/02 05:53:11;;;;;;;5.73;3.20;;;14.60;99.90;;;;;;4944856;29;20208;-76
2023/07/02 05:55:43;;;;;;;4.30;3.03;;;14.70;99.90;;;;;;4942444;29;20667;-76
2023/07/02 05:58:11;;;;;;;5.73;2.90;;;14.70;99.90;;;;;;4938557;29;20262;-75
2023/07/02 06:00:41;;;;;;;4.43;2.90;;;14.80;99.90;;;;;;4937235;29;20267;-77
2023/07/02 06:03:09;;;;;;;5.53;2.93;;;15.10;99.90;;;;;;4937366;29;20715;-75
2023/07/02 06:05:37;;;;;;;5.17;3.00;;;15.30;99.90;;;;;;4937697;29;20585;-78
2023/07/02 06:08:06;;;;;;;6.97;2.83;;;15.50;99.90;;;;;;4937253;29;20227;-78
2023/07/02 06:10:34;;;;;;;4.03;2.93;;;15.60;99.90;;;;;;4936884;29;20698;-76
2023/07/02 06:13:03;;;;;;;7.90;3.10;;;15.70;99.90;;;;;;4936249;29;20683;-74
2023/07/02 06:15:32;;;;;;;4.13;3.03;;;15.80;99.90;;;;;;4936844;29;20220;-75
2023/07/02 06:18:01;;;;;;;4.83;2.93;;;15.70;99.90;;;;;;4936389;29;20663;-76
2023/07/02 06:20:29;;;;;;;6.73;2.47;;;15.70;99.90;;;;;;4936699;29;20267;-75
2023/07/02 06:22:58;;;;;;;5.47;3.10;;;15.70;99.90;;;;;;4947652;28;20235;-75
2023/07/02 06:25:27;;;;;;;3.80;2.87;;;15.70;99.90;;;;;;4974618;28;20269;-76
2023/07/02 06:27:58;;;;;;;9.10;3.10;;;15.70;99.90;;;;;;4940017;28;20220;-76
2023/07/02 06:30:27;;;;;;;3.57;2.90;;;15.60;99.90;;;;;;4936163;29;20303;-78
2023/07/02 06:32:55;;;;;;;4.63;3.07;;;15.50;99.90;;;;;;4936304;29;20287;-76
2023/07/02 06:35:24;;;;;;;5.00;3.10;;;15.50;99.90;;;;;;4936189;29;20315;-75
2023/07/02 06:37:52;;;;;;;4.97;2.97;;;15.50;99.90;;;;;;4936227;29;20279;-74
2023/07/02 06:40:22;;;;;;;5.07;3.00;;;15.50;99.90;;;;;;4936270;29;20649;-75
2023/07/02 06:42:50;;;;;;;3.00;2.70;;;15.40;99.90;;;;;;4935999;29;20299;-77
2023/07/02 06:45:19;;;;;;;5.50;3.13;;;15.30;99.90;;;;;;4935416;29;20250;-75
2023/07/02 06:47:48;;;;;;;5.40;3.13;;;15.30;99.90;;;;;;4935903;29;20746;-75
2023/07/02 06:50:16;;;;;;;6.33;3.27;;;15.20;99.90;;;;;;4936410;29;20208;-78
2023/07/02 06:52:45;;;;;;;6.17;3.20;;;15.20;99.90;;;;;;4935621;29;20251;-76
2023/07/02 06:55:13;;;;;;;4.67;3.10;;;15.20;99.90;;;;;;4935585;29;20283;-78
2023/07/02 06:57:45;;;;;;;6.43;3.00;;;15.20;99.90;;;;;;4936170;29;20704;-77
2023/07/02 07:00:14;;;;;;;4.83;3.30;;;15.30;99.90;;;;;;4936010;29;20235;-75
2023/07/02 07:02:43;;;;;;;5.93;3.40;;;15.40;99.90;;;;;;4935974;29;20212;-76
2023/07/02 07:05:12;;;;;;;4.07;2.97;;;15.50;99.90;;;;;;4936012;29;20225;-75
2023/07/02 07:07:41;;;;;;;5.43;3.40;;;15.50;99.90;;;;;;4935848;29;20212;-75
2023/07/02 07:10:10;;;;;;;4.97;3.13;;;15.60;99.90;;;;;;4936254;29;20224;-75
2023/07/02 07:12:38;;;;;;;4.97;2.80;;;15.60;99.90;;;;;;4936469;29;20571;-78
2023/07/02 07:15:07;;;;;;;5.57;3.27;;;15.70;99.90;;;;;;4936086;29;20293;-75
2023/07/02 07:17:35;;;;;;;4.07;2.93;;;15.70;99.90;;;;;;4935792;29;20216;-75
2023/07/02 07:20:05;;;;;;;4.80;3.00;;;15.80;99.90;;;;;;4935825;29;20205;-76
2023/07/02 07:22:35;;;;;;;6.07;3.17;;;15.80;99.90;;;;;;4957694;28;20657;-76
2023/07/02 07:25:03;;;;;;;6.50;3.60;;;15.80;99.90;;;;;;4935857;29;20228;-78
2023/07/02 07:27:31;;;;;;;4.83;3.20;;;15.80;99.90;;;;;;4935733;29;20322;-75
2023/07/02 07:30:00;;;;;;;7.07;3.23;;;15.90;99.90;;;;;;4936238;29;20216;-77
2023/07/02 07:32:28;;;;;;;6.37;3.53;;;16.00;99.90;;;;;;4935352;29;20303;-77
2023/07/02 07:34:57;;;;;;;8.43;3.23;;;16.00;99.90;;;;;;4936110;29;20219;-76
2023/07/02 07:37:26;;;;;;;7.43;3.20;;;15.90;99.90;;;;;;4936034;29;20242;-76
2023/07/02 07:39:55;;;;;;;3.83;3.07;;;15.90;99.90;;;;;;4936190;29;20243;-78
2023/07/02 07:42:23;;;;;;;5.47;3.53;;;15.80;99.90;;;;;;4936106;29;20216;-78
2023/07/02 07:44:52;;;;;;;5.83;3.57;;;15.70;99.90;;;;;;4936773;29;20288;-78
2023/07/02 07:47:20;;;;;;;5.17;3.30;;;15.70;99.90;;;;;;4936776;29;20216;-79
2023/07/02 07:49:49;;;;;;;6.50;3.57;;;15.70;99.90;;;;;;4936295;29;20220;-79
2023/07/02 07:52:17;;;;;;;5.40;3.40;;;15.70;99.90;;;;;;4936389;29;20212;-76
2023/07/02 07:54:45;;;;;;;5.30;3.40;;;15.70;99.90;;;;;;4935887;29;20212;-76
2023/07/02 07:57:15;;;;;;;5.93;3.57;;;15.70;99.90;;;;;;4936151;29;20276;-78
2023/07/02 07:59:43;;;;;;;8.70;3.70;;;15.60;99.90;;;;;;4935941;29;20276;-80
2023/07/02 08:02:11;;;;;;;4.40;3.10;;;15.70;99.90;;;;;;4935275;29;20243;-76
2023/07/02 08:04:39;;;;;;;5.60;3.70;;;15.80;99.90;;;;;;4934964;29;20243;-79
2023/07/02 08:07:09;;;;;;;6.57;3.50;;;15.90;99.90;;;;;;4934854;29;20667;-78
2023/07/02 08:09:37;;;;;;;4.70;3.43;;;15.80;99.90;;;;;;4934999;29;20667;-81
2023/07/02 08:12:05;;;;;;;7.00;3.50;;;15.90;99.90;;;;;;4934948;29;20215;-79
2023/07/02 08:14:36;;;;;;;6.67;3.30;;;15.80;99.90;;;;;;4935077;29;20271;-79
2023/07/02 08:17:04;;;;;;;5.07;3.27;;;16.00;99.90;;;;;;4934888;29;20710;-80
2023/07/02 08:19:32;;;;;;;4.27;3.00;;;16.10;99.90;;;;;;4937374;28;20211;-78
2023/07/02 08:22:00;;;;;;;3.83;2.77;;;16.20;99.90;;;;;;4973683;28;20545;-79
2023/07/02 08:24:28;;;;;;;4.27;2.80;;;16.20;99.90;;;;;;4945737;28;20686;-79
2023/07/02 08:26:56;;;;;;;3.77;2.80;;;16.20;99.90;;;;;;4935379;29;20263;-80
2023/07/02 08:29:24;;;;;;;5.83;3.10;;;16.40;99.90;;;;;;4935643;29;20271;-77
2023/07/02 08:31:54;;;;;;;3.40;3.00;;;16.40;99.90;;;;;;4935290;29;20212;-79
2023/07/02 08:34:22;;;;;;;4.47;2.83;;;16.30;99.90;;;;;;4935307;29;20294;-79
2023/07/02 08:36:51;;;;;;;6.23;3.07;;;16.20;99.90;;;;;;4935256;29;20232;-76
2023/07/02 08:39:19;;;;;;;5.17;3.03;;;16.10;99.90;;;;;;4935367;29;20667;-80
2023/07/02 08:41:49;;;;;;;5.43;2.80;;;16.00;99.90;;;;;;4934755;29;20733;-78
2023/07/02 08:44:21;;;;;;;4.50;3.27;;;15.90;99.90;;;;;;4934767;29;20238;-77
2023/07/02 08:46:50;;;;;;;5.27;3.13;;;15.80;99.90;;;;;;4934770;29;20223;-76
2023/07/02 08:49:20;;;;;;;5.13;3.50;;;15.70;99.90;;;;;;4935285;29;20219;-79
2023/07/02 08:51:48;;;;;;;6.63;3.60;;;15.60;99.90;;;;;;4935180;29;20216;-77
2023/07/02 08:54:18;;;;;;;6.73;3.07;;;15.60;99.90;;;;;;4935264;29;20216;-79
2023/07/02 08:56:47;;;;;;;5.90;3.50;;;15.60;99.90;;;;;;4934695;29;20499;-78
2023/07/02 08:59:15;;;;;;;7.17;3.87;;;15.20;99.90;;;;;;4937415;29;20212;-78
2023/07/02 09:01:47;;;;;;;6.67;4.07;;;15.20;99.90;;;;;;4938302;29;20590;-75
2023/07/02 09:04:21;;;;;;;5.97;4.20;;;15.20;99.90;;;;;;4938316;29;20212;-75
2023/07/02 09:06:50;;;;;;;5.07;3.70;;;15.20;99.90;;;;;;4938081;29;20212;-77
2023/07/02 09:09:19;;;;;;;5.73;4.17;;;15.10;99.90;;;;;;4937938;29;20663;-76
2023/07/02 09:11:50;;;;;;;7.03;3.73;;;15.20;99.90;;;;;;4938256;29;20471;-77
2023/07/02 09:14:27;;;;;;;4.77;3.93;;;15.30;99.90;;;;;;4938160;29;20239;-76
2023/07/02 09:17:09;;;;;;;5.27;3.87;;;15.50;99.90;;;;;;4937883;29;20716;-76
2023/07/02 09:19:52;;;;;;;6.90;3.97;;;15.80;99.90;;;;;;4963902;28;20273;-77
2023/07/02 09:22:20;;;;;;;3.63;3.27;;;16.10;99.90;;;;;;4976251;28;20199;-76
2023/07/02 09:24:54;;;;;;;4.73;3.63;;;16.60;99.90;;;;;;4976100;28;20254;-76
2023/07/02 09:27:22;;;;;;;4.70;3.17;;;17.10;99.90;;;;;;4963577;28;20244;-76
2023/07/02 09:29:53;;;;;;;4.13;3.20;;;17.30;99.90;;;;;;4937768;29;20645;-76
2023/07/02 09:32:27;;;;;;;4.30;3.00;;;17.40;99.90;;;;;;4937735;29;20224;-76
2023/07/02 09:34:59;;;;;;;4.40;2.90;;;17.70;99.90;;;;;;4937362;29;20689;-78
2023/07/02 09:37:27;;;;;;;4.40;2.80;;;17.70;99.90;;;;;;4937581;29;20209;-76
2023/07/02 09:39:56;;;;;;;3.73;2.80;;;17.90;99.90;;;;;;4937376;29;20212;-75
2023/07/02 09:42:26;;;;;;;3.80;2.70;;;18.30;99.90;;;;;;4937122;29;20235;-75
2023/07/02 09:44:58;;;;;;;2.43;2.23;;;18.30;99.90;;;;;;4937223;29;20675;-76
2023/07/02 09:47:27;;;;;;;2.80;2.60;;;18.30;99.90;;;;;;4937493;29;20244;-76
2023/07/02 09:49:59;;;;;;;3.57;2.43;;;18.30;99.90;;;;;;4937133;29;20232;-74
2023/07/02 09:52:28;;;;;;;4.10;2.33;;;18.50;99.90;;;;;;4937346;29;20212;-77
2023/07/02 09:54:56;;;;;;;3.60;2.53;;;18.70;99.90;;;;;;4936942;29;20220;-74
2023/07/02 09:57:24;;;;;;;3.37;2.37;;;18.90;99.90;;;;;;4936773;29;20718;-76
2023/07/02 09:59:53;;;;;;;2.40;2.20;;;19.10;99.90;;;;;;4937029;29;20212;-75
2023/07/02 10:02:21;;;;;;;2.80;2.23;;;19.20;99.90;;;;;;4936849;29;20251;-74
2023/07/02 10:04:54;;;;;;;3.40;2.50;;;19.40;99.90;;;;;;4936991;29;20239;-77
2023/07/02 10:07:33;;;;;;;2.90;2.60;;;19.50;99.90;;;;;;4937158;29;20271;-74
2023/07/02 10:10:02;;;;;;;4.40;2.60;;;19.20;99.90;;;;;;4936512;29;20212;-74
2023/07/02 10:12:31;;;;;;;3.47;2.60;;;18.90;99.90;;;;;;4936739;29;20213;-74
2023/07/02 10:15:00;;;;;;;3.77;2.67;;;18.40;99.90;;;;;;4936663;29;20247;-75
2023/07/02 10:17:30;;;;;;;4.33;2.93;;;18.20;99.90;;;;;;4950253;28;20688;-78
2023/07/02 10:20:01;;;;;;;3.83;3.07;;;18.20;99.90;;;;;;4975320;28;20199;-78
2023/07/02 10:22:30;;;;;;;5.00;3.33;;;18.00;99.90;;;;;;4975729;28;20215;-78
2023/07/02 10:25:00;;;;;;;6.60;3.50;;;17.80;99.90;;;;;;4937111;28;20279;-76
2023/07/02 10:27:36;;;;;;;5.07;3.50;;;17.80;99.90;;;;;;4936747;29;20667;-79
2023/07/02 10:30:06;;;;;;;4.97;3.53;;;17.80;99.90;;;;;;4937447;29;20208;-77
2023/07/02 10:32:35;;;;;;;5.43;3.80;;;17.70;99.90;;;;;;4937214;29;20254;-75
2023/07/02 10:35:13;;;;;;;7.80;4.10;;;17.60;99.90;;;;;;4937440;29;20213;-79
2023/07/02 10:37:43;;;;;;;6.87;3.83;;;17.60;99.90;;;;;;4937909;29;20200;-75
2023/07/02 10:40:13;;;;;;;7.53;3.73;;;17.50;99.90;;;;;;4938433;29;20212;-76
2023/07/02 10:42:48;;;;;;;6.33;4.40;;;17.40;99.90;;;;;;4938138;29;20219;-77
2023/07/02 10:45:17;;;;;;;5.43;4.20;;;17.40;99.90;;;;;;4936813;29;20584;-75
2023/07/02 10:47:46;;;;;;;8.30;4.40;;;17.30;99.90;;;;;;4938401;29;20218;-78
2023/07/02 10:50:19;;;;;;;7.10;4.53;;;17.10;99.90;;;;;;4937306;29;20213;-78
2023/07/02 10:52:50;;;;;;;6.67;4.60;;;17.00;99.90;;;;;;4937209;29;20213;-77
2023/07/02 10:55:20;;;;;;;8.13;5.90;;;17.00;99.90;;;;;;4937696;29;20220;-75
2023/07/02 10:57:50;;;;;;;8.57;5.60;;;16.90;99.90;;;;;;4939368;29;20208;-76
2023/07/02 11:00:20;;;;;;;7.00;5.20;;;16.90;99.90;;;;;;4939830;29;20581;-77
2023/07/02 11:02:48;;;;;;;6.83;4.77;;;17.10;99.90;;;;;;4939049;29;20280;-75
2023/07/02 11:05:16;;;;;;;8.33;4.93;;;17.40;99.90;;;;;;4939077;29;20215;-77
2023/07/02 11:07:45;;;;;;;8.30;5.60;;;17.60;99.90;;;;;;4939302;29;20228;-76
2023/07/02 11:10:20;;;;;;;6.83;4.70;;;17.60;99.90;;;;;;4938043;29;20239;-75
2023/07/02 11:12:49;;;;;;;7.00;4.60;;;17.60;99.90;;;;;;4940713;29;20212;-75
2023/07/02 11:15:18;;;;;;;7.03;4.47;;;17.90;99.90;;;;;;4943175;28;20212;-76
2023/07/02 11:17:47;;;;;;;6.13;4.70;;;18.20;99.90;;;;;;4975295;28;20570;-79
2023/07/02 11:20:16;;;;;;;7.33;4.63;;;18.90;99.90;;;;;;4938180;28;20227;-74
2023/07/02 11:22:44;;;;;;;7.47;4.60;;;19.50;99.90;;;;;;4936434;29;20216;-76
2023/07/02 11:25:14;;;;;;;5.83;4.13;;;20.00;99.90;;;;;;4936057;29;20259;-74
2023/07/02 11:27:44;;;;;;;7.73;4.70;;;21.20;99.90;;;;;;4935883;29;20327;-76
2023/07/02 11:30:13;;;;;;;7.23;4.77;;;21.70;99.90;;;;;;4936131;29;20267;-77
2023/07/02 11:32:49;;;;;;;6.67;4.60;;;22.00;99.90;;;;;;4935638;29;20215;-78
2023/07/02 11:35:18;;;;;;;6.47;4.70;;;22.80;99.90;;;;;;4935556;29;20645;-75
2023/07/02 11:37:48;;;;;;;7.47;4.67;;;23.10;99.90;;;;;;4936317;29;20219;-78
2023/07/02 11:40:18;;;;;;;6.27;4.50;;;23.10;99.90;;;;;;4936574;29;20243;-78
2023/07/02 11:42:48;;;;;;;8.30;5.10;;;22.90;99.90;;;;;;4936424;29;20672;-74
2023/07/02 11:45:16;;;;;;;8.50;5.37;;;22.70;99.90;;;;;;4936533;29;20223;-76
2023/07/02 11:47:45;;;;;;;8.40;5.10;;;23.10;99.90;;;;;;4937374;29;20326;-75
2023/07/02 11:50:13;;;;;;;7.63;4.90;;;23.10;99.90;;;;;;4937451;29;20224;-75
2023/07/02 11:52:54;;;;;;;7.53;5.20;;;22.90;99.90;;;;;;4937892;29;20192;-74
2023/07/02 11:55:23;;;;;;;6.90;4.93;;;22.80;99.90;;;;;;4955016;29;20224;-76
2023/07/02 11:57:52;;;;;;;7.53;5.30;;;22.60;99.90;;;;;;4956783;29;20211;-78
2023/07/02 12:00:21;;;;;;;8.43;5.50;;;22.50;99.90;;;;;;4955986;29;20270;-74
2023/07/02 12:02:50;;;;;;;6.90;4.97;;;22.30;99.90;;;;;;4952268;29;20267;-78
2023/07/02 12:05:18;;;;;;;7.97;5.00;;;22.50;99.90;;;;;;4936200;28;20212;-80
2023/07/02 12:07:46;;;;;;;9.07;5.20;;;22.40;99.90;;;;;;4935963;29;20232;-75
2023/07/02 12:10:15;;;;;;;6.40;4.73;;;22.70;99.90;;;;;;4936124;29;20212;-75
2023/07/02 12:12:43;;;;;;;8.60;5.10;;;22.90;99.90;;;;;;4936202;29;20212;-75
2023/07/02 12:15:12;;;;;;;9.20;5.70;;;23.10;99.90;;;;;;4958717;28;20343;-76
2023/07/02 12:17:40;;;;;;;7.37;5.50;;;23.40;99.90;;;;;;4976095;28;20666;-77
2023/07/02 12:20:10;;;;;;;8.33;5.77;;;23.40;99.90;;;;;;4974661;28;20210;-73
2023/07/02 12:22:38;;;;;;;11.67;6.23;;;23.20;99.90;;;;;;4945518;28;20299;-75
2023/07/02 12:25:07;;;;;;;8.30;6.37;;;23.10;99.90;;;;;;4937233;29;20212;-75
2023/07/02 12:27:35;;;;;;;10.37;6.93;;;22.70;99.90;;;;;;4936739;29;20232;-78
2023/07/02 12:30:04;;;;;;;12.03;6.67;;;22.70;99.90;;;;;;4936202;29;20291;-75
2023/07/02 12:32:33;;;;;;;9.23;6.37;;;23.00;99.90;;;;;;4937782;29;20215;-75
2023/07/02 12:35:02;;;;;;;9.20;6.07;;;23.30;99.90;;;;;;4939564;29;20311;-74
2023/07/02 12:37:30;;;;;;;10.93;6.83;;;23.60;99.90;;;;;;4940228;29;20204;-75
2023/07/02 12:39:58;;;;;;;8.63;6.60;;;23.60;99.90;;;;;;4941661;29;20224;-78
2023/07/02 12:42:27;;;;;;;11.13;7.53;;;23.90;99.90;;;;;;4940133;29;20216;-75
2023/07/02 12:44:55;;;;;;;8.23;6.33;;;24.10;99.90;;;;;;4940206;29;20271;-75
2023/07/02 12:47:23;;;;;;;8.40;6.60;;;24.30;99.90;;;;;;4940635;29;20286;-75
2023/07/02 12:49:52;;;;;;;8.87;7.17;;;24.10;98.30;;;;;;4940327;29;20220;-78
2023/07/02 12:52:21;;;;;;;10.90;7.53;;;24.20;98.50;;;;;;4939147;29;20733;-77
2023/07/02 12:54:49;;;;;;;12.60;9.03;;;24.30;99.90;;;;;;4940559;29;20219;-76